createdAt,value
2023-08-18T00:00:43.885Z,100789.81
2023-08-18T00:01:46.861Z,100791.47
2023-08-18T00:02:49.600Z,100795.69
2023-08-18T00:03:52.416Z,100792.47
2023-08-18T00:04:55.120Z,100794.56
2023-08-18T00:05:57.716Z,100791.06
2023-08-18T00:07:00.662Z,100795.53
2023-08-18T00:08:03.309Z,100797.06
2023-08-18T00:09:06.228Z,100797.25
2023-08-18T00:10:09.456Z,100795.41
2023-08-18T00:11:12.116Z,100794.84
2023-08-18T00:12:15.006Z,100793.88
2023-08-18T00:13:17.745Z,100776.34
2023-08-18T00:14:20.405Z,100792.59
2023-08-18T00:15:23.098Z,100792.47
2023-08-18T00:16:25.836Z,100795.88
2023-08-18T00:17:29.122Z,100796.94
2023-08-18T00:18:32.310Z,100796.13
2023-08-18T00:19:34.920Z,100789.91
2023-08-18T00:20:37.520Z,100795.41
2023-08-18T00:21:41.352Z,100796.25
2023-08-18T00:22:45.073Z,100799.78
2023-08-18T00:23:47.749Z,100793.59
2023-08-18T00:24:50.424Z,100795.41
2023-08-18T00:25:53.181Z,100792.75
2023-08-18T00:26:55.814Z,100791.09
2023-08-18T00:27:58.828Z,100793.28
2023-08-18T00:29:01.540Z,100796.25
2023-08-18T00:30:05.036Z,100793.72
2023-08-18T00:31:07.776Z,100758.38
2023-08-18T00:32:10.653Z,100790.19
2023-08-18T00:33:14.550Z,100796.41
2023-08-18T00:34:17.203Z,100796.53
2023-08-18T00:35:19.875Z,100792.03
2023-08-18T00:36:22.976Z,100796.53
2023-08-18T00:37:25.650Z,100797.09
2023-08-18T00:38:28.844Z,100793.31
2023-08-18T00:39:32.402Z,100801.88
2023-08-18T00:40:35.127Z,100796.09
2023-08-18T00:41:37.847Z,100795.97
2023-08-18T00:42:40.545Z,100796.94
2023-08-18T00:43:43.658Z,100797.38
2023-08-18T00:44:46.307Z,100799.91
2023-08-18T00:45:51.203Z,100803.13
2023-08-18T00:46:54.323Z,100808.44
2023-08-18T00:47:57.304Z,100805.78
2023-08-18T00:49:05.837Z,100808.16
2023-08-18T00:50:11.650Z,100803.97
2023-08-18T00:51:14.781Z,100807.34
2023-08-18T00:52:19.442Z,100811.81
2023-08-18T00:53:24.366Z,100815.59
2023-08-18T00:54:28.534Z,100820.66
2023-08-18T00:55:31.339Z,100823.31
2023-08-18T00:56:34.675Z,100827.66
2023-08-18T00:57:38.286Z,100821.34
2023-08-18T00:58:41.251Z,100840.53
2023-08-18T00:59:44.770Z,100883.78
2023-08-18T01:00:49.457Z,100884.06
2023-08-18T01:01:52.913Z,100881.34
2023-08-18T01:02:55.918Z,100865.66
2023-08-18T01:04:01.622Z,100835.91
2023-08-18T01:05:04.741Z,100840.22
2023-08-18T01:06:07.448Z,100846.50
2023-08-18T01:07:10.184Z,100851.03
2023-08-18T01:08:12.799Z,100877.34
2023-08-18T01:09:15.710Z,100905.25
2023-08-18T01:10:19.177Z,100907.06
2023-08-18T01:11:25.349Z,100913.22
2023-08-18T01:13:05.303Z,100907.63
2023-08-18T01:14:17.589Z,100886.25
2023-08-18T01:15:31.663Z,100861.72
2023-08-18T01:16:36.387Z,100856.69
2023-08-18T01:17:48.912Z,100862.72
2023-08-18T01:18:52.887Z,100894.69
2023-08-18T01:19:56.362Z,100905.72
2023-08-18T01:21:01.109Z,100922.81
2023-08-18T01:22:13.187Z,100917.03
2023-08-18T01:23:16.026Z,100917.47
2023-08-18T01:24:18.766Z,100907.41
2023-08-18T01:25:21.549Z,100881.31
2023-08-18T01:26:24.453Z,100883.31
2023-08-18T01:27:29.975Z,100882.19
2023-08-18T01:28:34.475Z,100893.03
2023-08-18T01:29:38.570Z,100896.53
2023-08-18T01:30:49.565Z,100900.31
2023-08-18T01:31:56.235Z,100904.09
2023-08-18T01:33:22.935Z,100898.94
2023-08-18T01:34:27.408Z,100894.59
2023-08-18T01:35:31.012Z,100893.47
2023-08-18T01:36:39.826Z,100890.97
2023-08-18T01:37:44.228Z,100886.34
2023-08-18T01:38:49.228Z,100885.94
2023-08-18T01:39:53.657Z,100888.44
2023-08-18T01:40:58.752Z,100887.91
2023-08-18T01:42:03.096Z,100887.78
2023-08-18T01:43:06.303Z,100890.44
2023-08-18T01:44:09.004Z,100884.25
2023-08-18T01:45:12.679Z,100886.50
2023-08-18T01:46:15.406Z,100879.62
2023-08-18T01:47:18.109Z,100883.28
2023-08-18T01:48:21.066Z,100886.78
2023-08-18T01:49:23.791Z,100883.41
2023-08-18T01:50:26.513Z,100888.59
2023-08-18T01:51:29.221Z,100881.56
2023-08-18T01:52:31.888Z,100888.44
2023-08-18T01:53:34.971Z,100880.72
2023-08-18T01:54:37.621Z,100868.66
2023-08-18T01:55:40.229Z,100865.16
2023-08-18T01:56:42.908Z,100868.81
2023-08-18T01:57:45.613Z,100870.50
2023-08-18T01:58:48.556Z,100848.06
2023-08-18T01:59:51.222Z,100869.94
2023-08-18T02:00:56.885Z,100862.06
2023-08-18T02:02:00.001Z,100866.97
2023-08-18T02:03:02.891Z,100845.78
2023-08-18T02:04:05.684Z,100867.84
2023-08-18T02:05:10.531Z,100867.84
2023-08-18T02:06:13.153Z,100862.59
2023-08-18T02:07:16.117Z,100871.59
2023-08-18T02:08:18.718Z,100875.94
2023-08-18T02:09:21.379Z,100865.28
2023-08-18T02:10:24.082Z,100862.03
2023-08-18T02:11:26.796Z,100859.78
2023-08-18T02:12:29.696Z,100865.97
2023-08-18T02:13:33.405Z,100865.41
2023-08-18T02:14:36.142Z,100858.53
2023-08-18T02:15:38.780Z,100855.00
2023-08-18T02:16:42.488Z,100856.16
2023-08-18T02:17:45.178Z,100852.78
2023-08-18T02:18:48.991Z,100856.41
2023-08-18T02:19:51.661Z,100856.41
2023-08-18T02:21:01.508Z,100855.56
2023-08-18T02:22:04.916Z,100852.22
2023-08-18T02:23:07.959Z,100851.94
2023-08-18T02:24:11.852Z,100859.94
2023-08-18T02:25:14.634Z,100859.78
2023-08-18T02:26:18.012Z,100858.94
2023-08-18T02:27:21.050Z,100853.63
2023-08-18T02:28:23.759Z,100849.84
2023-08-18T02:29:26.538Z,100847.03
2023-08-18T02:30:30.182Z,100842.41
2023-08-18T02:31:32.990Z,100846.63
2023-08-18T02:32:36.275Z,100846.06
2023-08-18T02:33:40.286Z,100839.75
2023-08-18T02:34:43.022Z,100844.34
2023-08-18T02:35:46.199Z,100840.72
2023-08-18T02:36:49.778Z,100837.34
2023-08-18T02:37:52.698Z,100825.97
2023-08-18T02:38:55.285Z,100828.66
2023-08-18T02:39:58.671Z,100828.81
2023-08-18T02:41:01.324Z,100825.69
2023-08-18T02:42:04.686Z,100828.66
2023-08-18T02:43:07.572Z,100828.94
2023-08-18T02:44:11.144Z,100827.81
2023-08-18T02:45:13.868Z,100825.16
2023-08-18T02:46:17.519Z,100827.25
2023-08-18T02:47:20.221Z,100810.41
2023-08-18T02:48:24.318Z,100819.97
2023-08-18T02:49:26.959Z,100814.34
2023-08-18T02:50:29.974Z,100818.97
2023-08-18T02:51:32.660Z,100829.78
2023-08-18T02:52:36.047Z,100820.09
2023-08-18T02:53:39.383Z,100823.03
2023-08-18T02:54:42.112Z,100822.34
2023-08-18T02:55:44.770Z,100821.66
2023-08-18T02:56:47.397Z,100818.25
2023-08-18T02:57:50.079Z,100820.94
2023-08-18T02:58:54.007Z,100784.91
2023-08-18T02:59:56.980Z,100816.72
2023-08-18T03:01:05.287Z,100813.50
2023-08-18T03:02:08.486Z,100817.16
2023-08-18T03:03:11.235Z,100806.37
2023-08-18T03:04:15.628Z,100807.47
2023-08-18T03:05:18.303Z,100818.12
2023-08-18T03:06:21.089Z,100806.66
2023-08-18T03:07:23.704Z,100816.87
2023-08-18T03:08:26.751Z,100805.22
2023-08-18T03:09:29.770Z,100805.91
2023-08-18T03:10:32.581Z,100821.22
2023-08-18T03:11:35.374Z,100806.06
2023-08-18T03:12:38.071Z,100818.84
2023-08-18T03:13:40.683Z,100811.81
2023-08-18T03:14:43.697Z,100815.75
2023-08-18T03:15:46.331Z,100817.44
2023-08-18T03:16:49.113Z,100813.34
2023-08-18T03:17:51.801Z,100819.53
2023-08-18T03:18:54.527Z,100805.63
2023-08-18T03:19:57.622Z,100814.47
2023-08-18T03:21:02.434Z,100809.84
2023-08-18T03:22:05.776Z,100807.63
2023-08-18T03:23:08.577Z,100797.91
2023-08-18T03:24:14.550Z,100806.25
2023-08-18T03:25:18.273Z,100812.41
2023-08-18T03:26:20.886Z,100805.53
2023-08-18T03:27:23.844Z,100771.72
2023-08-18T03:28:26.534Z,100805.97
2023-08-18T03:29:29.122Z,100797.25
2023-08-18T03:30:32.369Z,100795.88
2023-08-18T03:31:35.562Z,100799.47
2023-08-18T03:32:39.539Z,100804.78
2023-08-18T03:33:43.044Z,100792.75
2023-08-18T03:34:50.291Z,100791.75
2023-08-18T03:35:59.566Z,100792.47
2023-08-18T03:37:02.145Z,100791.38
2023-08-18T03:38:05.023Z,100793.19
2023-08-18T03:39:07.989Z,100795.12
2023-08-18T03:40:11.134Z,100793.03
2023-08-18T03:41:14.141Z,100783.78
2023-08-18T03:42:16.761Z,100784.91
2023-08-18T03:43:19.569Z,100782.81
2023-08-18T03:44:22.374Z,100790.94
2023-08-18T03:45:25.479Z,100788.09
2023-08-18T03:46:28.551Z,100784.06
2023-08-18T03:47:31.691Z,100782.22
2023-08-18T03:48:34.768Z,100784.88
2023-08-18T03:49:37.928Z,100783.78
2023-08-18T03:50:41.067Z,100779.81
2023-08-18T03:51:44.040Z,100779.69
2023-08-18T03:52:47.164Z,100778.28
2023-08-18T03:53:50.864Z,100779.97
2023-08-18T03:54:53.560Z,100782.19
2023-08-18T03:55:58.228Z,100783.91
2023-08-18T03:57:01.399Z,100782.19
2023-08-18T03:58:04.448Z,100783.03
2023-08-18T03:59:09.143Z,100783.19
2023-08-18T04:00:13.274Z,100784.03
2023-08-18T04:01:16.405Z,100778.97
2023-08-18T04:02:20.788Z,100778.97
2023-08-18T04:03:23.481Z,100780.81
2023-08-18T04:04:26.756Z,100772.94
2023-08-18T04:05:29.463Z,100780.53
2023-08-18T04:06:32.954Z,100774.66
2023-08-18T04:07:36.626Z,100777.88
2023-08-18T04:08:43.955Z,100777.44
2023-08-18T04:09:46.940Z,100784.59
2023-08-18T04:10:50.950Z,100778.72
2023-08-18T04:11:54.812Z,100787.97
2023-08-18T04:12:59.664Z,100779.81
2023-08-18T04:14:04.569Z,100755.25
2023-08-18T04:15:08.701Z,100792.03
2023-08-18T04:16:12.425Z,100787.41
2023-08-18T04:17:16.701Z,100799.31
2023-08-18T04:18:20.526Z,100798.66
2023-08-18T04:19:23.393Z,100796.41
2023-08-18T04:20:26.499Z,100801.47
2023-08-18T04:21:29.333Z,100804.69
2023-08-18T04:22:32.297Z,100803.41
2023-08-18T04:23:35.440Z,100803.41
2023-08-18T04:24:38.239Z,100799.47
2023-08-18T04:25:44.797Z,100799.06
2023-08-18T04:26:48.434Z,100804.81
2023-08-18T04:27:51.211Z,100798.91
2023-08-18T04:28:54.663Z,100809.84
2023-08-18T04:29:57.394Z,100820.50
2023-08-18T04:31:00.376Z,100816.31
2023-08-18T04:32:05.460Z,100815.44
2023-08-18T04:33:08.384Z,100810.56
2023-08-18T04:34:11.343Z,100803.84
2023-08-18T04:35:14.290Z,100797.78
2023-08-18T04:36:17.303Z,100797.13
2023-08-18T04:37:20.022Z,100796.84
2023-08-18T04:38:23.175Z,100801.19
2023-08-18T04:39:28.831Z,100801.59
2023-08-18T04:40:31.536Z,100810.47
2023-08-18T04:41:34.705Z,100812.94
2023-08-18T04:42:38.378Z,100805.12
2023-08-18T04:43:41.963Z,100811.56
2023-08-18T04:44:45.196Z,100806.06
2023-08-18T04:45:49.205Z,100813.66
2023-08-18T04:46:51.826Z,100804.25
2023-08-18T04:47:56.323Z,100802.81
2023-08-18T04:49:00.268Z,100801.69
2023-08-18T04:50:06.161Z,100797.38
2023-08-18T04:51:09.348Z,100792.44
2023-08-18T04:52:12.359Z,100790.66
2023-08-18T04:53:15.011Z,100794.28
2023-08-18T04:54:19.288Z,100788.09
2023-08-18T04:55:22.667Z,100794.13
2023-08-18T04:56:25.663Z,100789.06
2023-08-18T04:57:28.416Z,100791.91
2023-08-18T04:58:31.172Z,100800.16
2023-08-18T04:59:34.548Z,100798.75
2023-08-18T05:00:38.298Z,100801.12
2023-08-18T05:01:43.602Z,100795.22
2023-08-18T05:02:46.671Z,100806.47
2023-08-18T05:03:50.194Z,100801.12
2023-08-18T05:04:56.014Z,100801.69
2023-08-18T05:06:09.456Z,100805.06
2023-08-18T05:07:12.823Z,100801.38
2023-08-18T05:08:15.425Z,100811.50
2023-08-18T05:09:19.378Z,100812.34
2023-08-18T05:10:22.241Z,100812.22
2023-08-18T05:11:29.606Z,100820.22
2023-08-18T05:12:32.620Z,100818.25
2023-08-18T05:13:36.002Z,100816.56
2023-08-18T05:14:38.705Z,100799.72
2023-08-18T05:15:41.348Z,100816.81
2023-08-18T05:16:44.726Z,100814.84
2023-08-18T05:17:47.378Z,100814.84
2023-08-18T05:18:53.377Z,100817.34
2023-08-18T05:19:57.887Z,100823.25
2023-08-18T05:21:02.114Z,100814.28
2023-08-18T05:22:05.154Z,100812.56
2023-08-18T05:23:07.840Z,100811.59
2023-08-18T05:24:10.533Z,100814.94
2023-08-18T05:25:14.818Z,100817.47
2023-08-18T05:26:17.739Z,100817.31
2023-08-18T05:27:21.437Z,100825.31
2023-08-18T05:28:25.344Z,100824.75
2023-08-18T05:29:27.975Z,100829.09
2023-08-18T05:30:30.717Z,100831.31
2023-08-18T05:31:33.591Z,100841.72
2023-08-18T05:32:37.301Z,100842.72
2023-08-18T05:33:40.102Z,100840.31
2023-08-18T05:34:42.934Z,100843.97
2023-08-18T05:35:45.803Z,100843.09
2023-08-18T05:36:48.624Z,100843.34
2023-08-18T05:37:51.632Z,100847.44
2023-08-18T05:38:55.323Z,100851.19
2023-08-18T05:39:58.692Z,100857.41
2023-08-18T05:41:11.245Z,100852.34
2023-08-18T05:42:14.655Z,100856.97
2023-08-18T05:43:19.858Z,100860.50
2023-08-18T05:44:22.823Z,100858.50
2023-08-18T05:45:27.129Z,100851.50
2023-08-18T05:46:29.927Z,100855.56
2023-08-18T05:47:32.664Z,100859.12
2023-08-18T05:48:35.940Z,100858.19
2023-08-18T05:49:38.583Z,100855.66
2023-08-18T05:50:41.947Z,100853.16
2023-08-18T05:51:45.701Z,100856.97
2023-08-18T05:52:48.313Z,100859.03
2023-08-18T05:53:53.541Z,100852.47
2023-08-18T05:54:56.240Z,100860.63
2023-08-18T05:55:59.070Z,100862.78
2023-08-18T05:57:01.745Z,100861.09
2023-08-18T05:58:05.526Z,100863.25
2023-08-18T05:59:08.426Z,100861.25
2023-08-18T06:00:13.817Z,100852.38
2023-08-18T06:01:16.403Z,100859.12
2023-08-18T06:02:19.706Z,100866.28
2023-08-18T06:03:25.146Z,100867.16
2023-08-18T06:04:27.930Z,100784.69
2023-08-18T06:05:30.712Z,100868.66
2023-08-18T06:06:34.889Z,100873.34
2023-08-18T06:07:38.339Z,100862.62
2023-08-18T06:08:41.012Z,100855.13
2023-08-18T06:09:43.739Z,100865.31
2023-08-18T06:10:47.937Z,100863.59
2023-08-18T06:11:50.604Z,100861.94
2023-08-18T06:12:53.846Z,100866.66
2023-08-18T06:13:56.432Z,100860.56
2023-08-18T06:14:59.265Z,100865.13
2023-08-18T06:16:08.791Z,100876.84
2023-08-18T06:17:11.506Z,100878.59
2023-08-18T06:18:18.085Z,100874.91
2023-08-18T06:19:20.754Z,100882.16
2023-08-18T06:20:23.422Z,100882.78
2023-08-18T06:21:26.396Z,100885.31
2023-08-18T06:22:29.406Z,100882.81
2023-08-18T06:23:32.547Z,100877.87
2023-08-18T06:24:36.120Z,100869.00
2023-08-18T06:25:41.967Z,100870.19
2023-08-18T06:26:44.597Z,100874.56
2023-08-18T06:27:47.331Z,100874.03
2023-08-18T06:28:50.207Z,100880.75
2023-08-18T06:29:54.122Z,100882.44
2023-08-18T06:31:09.403Z,100878.75
2023-08-18T06:32:12.013Z,100886.22
2023-08-18T06:33:14.778Z,100876.03
2023-08-18T06:34:17.673Z,100880.78
2023-08-18T06:35:20.244Z,100882.50
2023-08-18T06:36:23.020Z,100878.56
2023-08-18T06:37:26.914Z,100881.16
2023-08-18T06:38:29.791Z,100873.53
2023-08-18T06:39:34.486Z,100869.44
2023-08-18T06:40:37.057Z,100870.41
2023-08-18T06:41:41.037Z,100866.75
2023-08-18T06:42:46.430Z,100875.13
2023-08-18T06:43:49.195Z,100879.69
2023-08-18T06:44:54.782Z,100876.81
2023-08-18T06:45:57.398Z,100880.16
2023-08-18T06:47:00.050Z,100879.81
2023-08-18T06:48:03.184Z,100881.47
2023-08-18T06:49:06.030Z,100882.44
2023-08-18T06:50:11.176Z,100873.34
2023-08-18T06:51:15.693Z,100875.44
2023-08-18T06:52:18.580Z,100879.00
2023-08-18T06:53:21.822Z,100874.50
2023-08-18T06:54:24.444Z,100869.94
2023-08-18T06:55:31.096Z,100857.13
2023-08-18T06:56:49.976Z,100872.28
2023-08-18T06:57:53.473Z,100871.19
2023-08-18T06:58:56.156Z,100872.91
2023-08-18T06:59:58.856Z,100873.00
2023-08-18T07:01:01.803Z,100866.16
2023-08-18T07:02:04.528Z,100870.13
2023-08-18T07:03:07.517Z,100870.06
2023-08-18T07:04:11.639Z,100868.56
2023-08-18T07:05:14.415Z,100868.53
2023-08-18T07:06:17.508Z,100861.28
2023-08-18T07:07:20.234Z,100850.13
2023-08-18T07:08:23.763Z,100858.59
2023-08-18T07:09:26.523Z,100857.59
2023-08-18T07:10:29.269Z,100857.09
2023-08-18T07:11:32.547Z,100818.62
2023-08-18T07:12:35.530Z,100850.50
2023-08-18T07:13:38.512Z,100855.91
2023-08-18T07:14:41.288Z,100849.78
2023-08-18T07:15:44.039Z,100845.03
2023-08-18T07:16:46.995Z,100852.47
2023-08-18T07:17:49.682Z,100843.47
2023-08-18T07:18:53.004Z,100852.09
2023-08-18T07:19:55.764Z,100854.09
2023-08-18T07:21:00.793Z,100854.03
2023-08-18T07:22:05.902Z,100844.56
2023-08-18T07:23:09.539Z,100849.22
2023-08-18T07:24:12.249Z,100854.75
2023-08-18T07:25:15.058Z,100855.31
2023-08-18T07:26:17.811Z,100851.19
2023-08-18T07:27:22.891Z,100849.69
2023-08-18T07:28:25.901Z,100851.69
2023-08-18T07:29:28.576Z,100852.03
2023-08-18T07:30:31.356Z,100855.44
2023-08-18T07:31:34.034Z,100856.59
2023-08-18T07:32:37.816Z,100839.19
2023-08-18T07:33:40.829Z,100858.75
2023-08-18T07:34:43.515Z,100848.34
2023-08-18T07:35:47.525Z,100857.47
2023-08-18T07:36:50.778Z,100860.53
2023-08-18T07:37:56.233Z,100860.41
2023-08-18T07:38:59.202Z,100854.37
2023-08-18T07:40:01.907Z,100850.13
2023-08-18T07:41:04.617Z,100853.13
2023-08-18T07:42:07.826Z,100856.75
2023-08-18T07:43:11.869Z,100854.50
2023-08-18T07:44:14.570Z,100853.81
2023-08-18T07:45:17.279Z,100853.66
2023-08-18T07:46:24.243Z,100860.56
2023-08-18T07:47:26.924Z,100850.56
2023-08-18T07:48:30.172Z,100859.78
2023-08-18T07:49:32.923Z,100860.16
2023-08-18T07:50:35.594Z,100858.81
2023-08-18T07:51:40.553Z,100857.63
2023-08-18T07:52:43.188Z,100855.47
2023-08-18T07:53:46.452Z,100850.31
2023-08-18T07:54:49.186Z,100851.97
2023-08-18T07:55:52.919Z,100824.66
2023-08-18T07:56:55.632Z,100850.59
2023-08-18T07:57:58.294Z,100856.44
2023-08-18T07:59:03.186Z,100854.59
2023-08-18T08:00:20.935Z,100859.41
2023-08-18T08:01:28.879Z,100855.69
2023-08-18T08:02:31.696Z,100864.78
2023-08-18T08:03:34.710Z,100857.31
2023-08-18T08:04:39.029Z,100851.13
2023-08-18T08:05:41.666Z,100859.78
2023-08-18T08:06:44.711Z,100855.94
2023-08-18T08:07:48.967Z,100859.44
2023-08-18T08:08:52.064Z,100857.34
2023-08-18T08:09:58.007Z,100851.09
2023-08-18T08:11:00.743Z,100856.94
2023-08-18T08:12:04.323Z,100854.72
2023-08-18T08:13:06.985Z,100850.63
2023-08-18T08:14:09.806Z,100842.72
2023-08-18T08:15:17.466Z,100848.78
2023-08-18T08:16:20.214Z,100851.91
2023-08-18T08:17:23.882Z,100842.50
2023-08-18T08:18:26.937Z,100857.31
2023-08-18T08:19:29.613Z,100845.44
2023-08-18T08:20:32.342Z,100851.28
2023-08-18T08:21:39.722Z,100854.19
2023-08-18T08:22:47.572Z,100849.63
2023-08-18T08:23:50.231Z,100853.78
2023-08-18T08:24:56.051Z,100850.66
2023-08-18T08:25:58.803Z,100853.34
2023-08-18T08:27:01.440Z,100857.09
2023-08-18T08:28:04.944Z,100851.19
2023-08-18T08:29:07.888Z,100854.56
2023-08-18T08:30:33.725Z,100849.38
2023-08-18T08:31:38.721Z,100852.53
2023-08-18T08:32:44.030Z,100844.81
2023-08-18T08:33:47.012Z,100850.03
2023-08-18T08:34:51.254Z,100854.22
2023-08-18T08:35:53.858Z,100850.25
2023-08-18T08:36:56.493Z,100853.34
2023-08-18T08:37:59.578Z,100852.31
2023-08-18T08:39:05.192Z,100852.31
2023-08-18T08:40:11.524Z,100855.88
2023-08-18T08:41:14.262Z,100857.75
2023-08-18T08:42:17.183Z,100856.94
2023-08-18T08:43:20.102Z,100855.88
2023-08-18T08:44:23.126Z,100850.22
2023-08-18T08:45:27.757Z,100853.13
2023-08-18T08:46:31.630Z,100841.44
2023-08-18T08:47:34.433Z,100850.47
2023-08-18T08:48:39.503Z,100856.69
2023-08-18T08:49:46.652Z,100861.72
2023-08-18T08:50:55.632Z,100860.66
2023-08-18T08:52:07.017Z,100862.97
2023-08-18T08:53:13.404Z,100856.09
2023-08-18T08:54:23.076Z,100854.56
2023-08-18T08:55:32.418Z,100851.19
2023-08-18T08:56:37.207Z,100867.06
2023-08-18T08:57:40.192Z,100866.69
2023-08-18T08:58:43.941Z,100859.84
2023-08-18T08:59:46.673Z,100857.97
2023-08-18T09:00:49.788Z,100858.59
2023-08-18T09:01:53.716Z,100853.78
2023-08-18T09:03:01.920Z,100860.00
2023-08-18T09:04:09.788Z,100854.37
2023-08-18T09:05:12.861Z,100861.69
2023-08-18T09:06:16.000Z,100857.31
2023-08-18T09:07:18.899Z,100856.25
2023-08-18T09:08:22.308Z,100839.19
2023-08-18T09:09:25.230Z,100853.59
2023-08-18T09:10:28.553Z,100852.09
2023-08-18T09:11:43.830Z,100855.84
2023-08-18T09:12:47.476Z,100860.00
2023-08-18T09:13:50.124Z,100861.50
2023-08-18T09:14:54.876Z,100858.38
2023-08-18T09:15:58.336Z,100842.12
2023-08-18T09:17:02.498Z,100857.97
2023-08-18T09:18:05.954Z,100851.25
2023-08-18T09:19:13.003Z,100855.41
2023-08-18T09:20:15.926Z,100854.78
2023-08-18T09:21:20.428Z,100852.44
2023-08-18T09:22:23.457Z,100855.03
2023-08-18T09:23:28.522Z,100851.94
2023-08-18T09:24:33.628Z,100856.94
2023-08-18T09:25:36.430Z,100852.28
2023-08-18T09:26:45.550Z,100861.38
2023-08-18T09:27:48.741Z,100855.06
2023-08-18T09:28:52.254Z,100855.09
2023-08-18T09:29:58.579Z,100858.25
2023-08-18T09:31:01.361Z,100857.41
2023-08-18T09:32:04.633Z,100853.75
2023-08-18T09:33:08.073Z,100849.34
2023-08-18T09:34:19.385Z,100861.31
2023-08-18T09:35:22.301Z,100856.97
2023-08-18T09:36:26.537Z,100861.19
2023-08-18T09:37:32.860Z,100859.22
2023-08-18T09:38:40.956Z,100861.47
2023-08-18T09:39:44.020Z,100850.66
2023-08-18T09:40:55.251Z,100860.87
2023-08-18T09:41:58.397Z,100851.50
2023-08-18T09:44:08.289Z,100851.44
2023-08-18T09:45:13.259Z,100841.63
2023-08-18T09:46:18.372Z,100841.94
2023-08-18T09:47:24.061Z,100844.94
2023-08-18T09:48:28.173Z,100851.13
2023-08-18T09:49:35.269Z,100842.16
2023-08-18T09:50:39.315Z,100849.78
2023-08-18T09:51:42.732Z,100849.31
2023-08-18T09:52:49.371Z,100851.03
2023-08-18T09:54:11.388Z,100844.97
2023-08-18T09:55:15.925Z,100840.59
2023-08-18T09:56:25.033Z,100837.91
2023-08-18T09:57:35.236Z,100838.00
2023-08-18T09:58:59.733Z,100837.78
2023-08-18T10:00:06.154Z,100833.28
2023-08-18T10:01:16.743Z,100834.09
2023-08-18T10:02:24.819Z,100834.31
2023-08-18T10:03:29.780Z,100837.31
2023-08-18T10:04:39.441Z,100836.50
2023-08-18T10:05:42.809Z,100840.19
2023-08-18T10:06:46.525Z,100835.62
2023-08-18T10:07:49.482Z,100836.06
2023-08-18T10:08:54.426Z,100839.09
2023-08-18T10:09:58.248Z,100834.56
2023-08-18T10:11:04.057Z,100834.56
2023-08-18T10:12:07.299Z,100826.50
2023-08-18T10:13:12.240Z,100825.66
2023-08-18T10:14:15.609Z,100830.84
2023-08-18T10:15:19.219Z,100826.81
2023-08-18T10:16:23.041Z,100819.00
2023-08-18T10:17:26.058Z,100833.78
2023-08-18T10:18:29.128Z,100823.37
2023-08-18T10:19:54.195Z,100830.09
2023-08-18T10:20:57.231Z,100831.88
2023-08-18T10:22:00.162Z,100826.09
2023-08-18T10:23:03.975Z,100824.88
2023-08-18T10:24:07.741Z,100815.56
2023-08-18T10:25:11.058Z,100818.84
2023-08-18T10:26:15.527Z,100821.41
2023-08-18T10:27:30.136Z,100811.59
2023-08-18T10:28:35.364Z,100822.25
2023-08-18T10:29:38.603Z,100818.25
2023-08-18T10:30:41.486Z,100822.38
2023-08-18T10:31:57.403Z,100822.78
2023-08-18T10:33:05.900Z,100814.94
2023-08-18T10:34:08.536Z,100828.00
2023-08-18T10:35:26.707Z,100819.13
2023-08-18T10:36:32.012Z,100806.66
2023-08-18T10:37:35.565Z,100823.13
2023-08-18T10:38:40.613Z,100820.25
2023-08-18T10:39:43.335Z,100835.50
2023-08-18T10:40:46.333Z,100821.94
2023-08-18T10:42:06.203Z,100827.25
2023-08-18T10:43:13.365Z,100820.72
2023-08-18T10:44:16.049Z,100826.44
2023-08-18T10:45:29.672Z,100821.34
2023-08-18T10:46:37.381Z,100828.22
2023-08-18T10:47:42.239Z,100824.28
2023-08-18T10:48:46.377Z,100823.56
2023-08-18T10:49:49.333Z,100821.81
2023-08-18T10:50:52.070Z,100828.69
2023-08-18T10:51:55.075Z,100819.91
2023-08-18T10:52:59.229Z,100821.75
2023-08-18T10:54:01.860Z,100820.59
2023-08-18T10:55:06.194Z,100816.84
2023-08-18T10:56:08.853Z,100817.22
2023-08-18T10:57:11.848Z,100813.88
2023-08-18T10:58:16.323Z,100821.13
2023-08-18T10:59:20.544Z,100813.91
2023-08-18T11:00:23.334Z,100818.00
2023-08-18T11:01:26.151Z,100813.16
2023-08-18T11:02:29.670Z,100819.06
2023-08-18T11:03:32.615Z,100812.44
2023-08-18T11:04:35.473Z,100808.56
2023-08-18T11:05:38.295Z,100813.78
2023-08-18T11:06:42.403Z,100806.66
2023-08-18T11:07:46.237Z,100818.41
2023-08-18T11:08:49.463Z,100822.09
2023-08-18T11:09:52.130Z,100807.44
2023-08-18T11:10:54.953Z,100814.66
2023-08-18T11:11:57.747Z,100808.88
2023-08-18T11:13:00.907Z,100803.19
2023-08-18T11:14:03.963Z,100803.94
2023-08-18T11:15:07.943Z,100794.06
2023-08-18T11:16:11.343Z,100796.31
2023-08-18T11:17:14.737Z,100795.03
2023-08-18T11:18:17.838Z,100795.75
2023-08-18T11:19:20.429Z,100796.63
2023-08-18T11:20:23.754Z,100801.94
2023-08-18T11:21:26.489Z,100794.88
2023-08-18T11:22:30.399Z,100795.91
2023-08-18T11:23:34.039Z,100790.69
2023-08-18T11:24:36.828Z,100801.12
2023-08-18T11:25:40.532Z,100796.06
2023-08-18T11:26:44.968Z,100790.84
2023-08-18T11:27:49.352Z,100787.22
2023-08-18T11:28:52.439Z,100787.34
2023-08-18T11:29:55.136Z,100792.22
2023-08-18T11:30:58.100Z,100786.19
2023-08-18T11:32:00.824Z,100789.78
2023-08-18T11:33:03.814Z,100787.59
2023-08-18T11:34:09.044Z,100785.47
2023-08-18T11:35:12.736Z,100773.13
2023-08-18T11:36:16.364Z,100785.38
2023-08-18T11:37:24.709Z,100780.28
2023-08-18T11:38:27.359Z,100780.59
2023-08-18T11:39:31.522Z,100786.25
2023-08-18T11:40:38.226Z,100783.47
2023-08-18T11:41:43.648Z,100777.13
2023-08-18T11:42:51.199Z,100780.72
2023-08-18T11:43:54.209Z,100780.94
2023-08-18T11:44:57.200Z,100776.63
2023-08-18T11:46:00.341Z,100780.59
2023-08-18T11:47:04.360Z,100778.94
2023-08-18T11:48:08.388Z,100782.37
2023-08-18T11:49:16.735Z,100782.34
2023-08-18T11:50:22.725Z,100777.34
2023-08-18T11:51:25.331Z,100765.41
2023-08-18T11:52:41.244Z,100779.06
2023-08-18T11:53:43.991Z,100780.22
2023-08-18T11:54:46.686Z,100774.66
2023-08-18T11:55:51.911Z,100777.81
2023-08-18T11:56:54.764Z,100695.16
2023-08-18T11:57:57.505Z,100773.97
2023-08-18T11:59:00.177Z,100777.19
2023-08-18T12:00:11.647Z,100773.09
2023-08-18T12:01:14.607Z,100777.72
2023-08-18T12:02:23.811Z,100754.31
2023-08-18T12:03:28.536Z,100769.91
2023-08-18T12:04:33.468Z,100769.22
2023-08-18T12:05:40.005Z,100771.38
2023-08-18T12:06:43.126Z,100774.25
2023-08-18T12:07:45.921Z,100768.69
2023-08-18T12:08:48.543Z,100772.00
2023-08-18T12:09:51.194Z,100776.06
2023-08-18T12:10:55.510Z,100775.25
2023-08-18T12:11:58.622Z,100748.06
2023-08-18T12:13:01.521Z,100776.81
2023-08-18T12:14:07.612Z,100774.88